sensor_id;sensor_type;location;lat;lon;timestamp;temperature;humidity
72380;SHT30;60354;47.798;12.472;2023-04-03T00:02:11;3.18;90.39
72380;SHT30;60354;47.798;12.472;2023-04-03T00:04:37;3.19;90.94
72380;SHT30;60354;47.798;12.472;2023-04-03T00:07:02;3.15;90.12
72380;SHT30;60354;47.798;12.472;2023-04-03T00:09:28;3.04;89.88
72380;SHT30;60354;47.798;12.472;2023-04-03T00:11:53;2.95;90.59
72380;SHT30;60354;47.798;12.472;2023-04-03T00:14:19;2.88;90.59
72380;SHT30;60354;47.798;12.472;2023-04-03T00:16:44;2.88;91.13
72380;SHT30;60354;47.798;12.472;2023-04-03T00:19:10;2.81;90.37
72380;SHT30;60354;47.798;12.472;2023-04-03T00:21:37;2.74;90.38
72380;SHT30;60354;47.798;12.472;2023-04-03T00:24:03;2.81;90.75
72380;SHT30;60354;47.798;12.472;2023-04-03T00:26:28;2.85;91.22
72380;SHT30;60354;47.798;12.472;2023-04-03T00:28:54;2.85;90.47
72380;SHT30;60354;47.798;12.472;2023-04-03T00:31:20;2.85;90.60
72380;SHT30;60354;47.798;12.472;2023-04-03T00:33:45;2.83;90.80
72380;SHT30;60354;47.798;12.472;2023-04-03T00:36:12;2.85;90.24
72380;SHT30;60354;47.798;12.472;2023-04-03T00:38:38;2.80;89.91
72380;SHT30;60354;47.798;12.472;2023-04-03T00:41:03;2.92;91.07
72380;SHT30;60354;47.798;12.472;2023-04-03T00:43:29;2.88;90.28
72380;SHT30;60354;47.798;12.472;2023-04-03T00:45:58;2.87;90.63
72380;SHT30;60354;47.798;12.472;2023-04-03T00:51:04;2.97;91.06
72380;SHT30;60354;47.798;12.472;2023-04-03T00:53:35;2.94;90.64
72380;SHT30;60354;47.798;12.472;2023-04-03T00:56:06;3.01;90.73
72380;SHT30;60354;47.798;12.472;2023-04-03T00:58:56;3.02;90.48
72380;SHT30;60354;47.798;12.472;2023-04-03T01:01:28;2.95;90.39
72380;SHT30;60354;47.798;12.472;2023-04-03T01:03:54;3.07;90.69
72380;SHT30;60354;47.798;12.472;2023-04-03T01:06:24;3.04;90.30
72380;SHT30;60354;47.798;12.472;2023-04-03T01:08:51;2.99;90.01
72380;SHT30;60354;47.798;12.472;2023-04-03T01:11:18;3.11;91.23
72380;SHT30;60354;47.798;12.472;2023-04-03T01:13:44;3.23;91.47
72380;SHT30;60354;47.798;12.472;2023-04-03T01:16:09;3.19;90.53
72380;SHT30;60354;47.798;12.472;2023-04-03T01:18:38;3.23;90.47
72380;SHT30;60354;47.798;12.472;2023-04-03T01:23:52;3.23;88.85
72380;SHT30;60354;47.798;12.472;2023-04-03T01:26:19;3.13;90.07
72380;SHT30;60354;47.798;12.472;2023-04-03T01:28:45;3.04;89.63
72380;SHT30;60354;47.798;12.472;2023-04-03T01:31:22;2.99;90.33
72380;SHT30;60354;47.798;12.472;2023-04-03T01:33:50;3.01;90.36
72380;SHT30;60354;47.798;12.472;2023-04-03T01:36:42;3.05;91.31
72380;SHT30;60354;47.798;12.472;2023-04-03T01:39:08;3.02;90.53
72380;SHT30;60354;47.798;12.472;2023-04-03T01:41:34;3.09;90.51
72380;SHT30;60354;47.798;12.472;2023-04-03T01:44:08;3.01;89.91
72380;SHT30;60354;47.798;12.472;2023-04-03T01:46:34;2.92;90.51
72380;SHT30;60354;47.798;12.472;2023-04-03T01:49:00;2.99;90.49
72380;SHT30;60354;47.798;12.472;2023-04-03T01:51:25;2.95;89.63
72380;SHT30;60354;47.798;12.472;2023-04-03T01:53:51;2.97;90.39
72380;SHT30;60354;47.798;12.472;2023-04-03T01:56:17;2.89;90.51
72380;SHT30;60354;47.798;12.472;2023-04-03T01:58:43;2.99;91.37
72380;SHT30;60354;47.798;12.472;2023-04-03T02:01:09;2.97;90.05
72380;SHT30;60354;47.798;12.472;2023-04-03T02:03:35;2.97;90.39
72380;SHT30;60354;47.798;12.472;2023-04-03T02:06:01;2.97;90.70
72380;SHT30;60354;47.798;12.472;2023-04-03T02:08:27;2.97;90.34
72380;SHT30;60354;47.798;12.472;2023-04-03T02:10:53;2.98;90.47
72380;SHT30;60354;47.798;12.472;2023-04-03T02:13:19;2.95;90.28
72380;SHT30;60354;47.798;12.472;2023-04-03T02:15:44;3.04;91.34
72380;SHT30;60354;47.798;12.472;2023-04-03T02:18:11;3.11;91.11
72380;SHT30;60354;47.798;12.472;2023-04-03T02:20:36;3.16;89.90
72380;SHT30;60354;47.798;12.472;2023-04-03T02:23:02;3.13;89.82
72380;SHT30;60354;47.798;12.472;2023-04-03T02:25:28;3.08;90.27
72380;SHT30;60354;47.798;12.472;2023-04-03T02:27:53;3.08;90.15
72380;SHT30;60354;47.798;12.472;2023-04-03T02:30:19;3.09;89.82
72380;SHT30;60354;47.798;12.472;2023-04-03T02:32:45;3.04;90.01
72380;SHT30;60354;47.798;12.472;2023-04-03T02:35:11;3.08;90.79
72380;SHT30;60354;47.798;12.472;2023-04-03T02:37:38;3.04;90.73
72380;SHT30;60354;47.798;12.472;2023-04-03T02:40:04;3.07;90.46
72380;SHT30;60354;47.798;12.472;2023-04-03T02:42:30;3.08;90.48
72380;SHT30;60354;47.798;12.472;2023-04-03T02:44:56;2.97;90.51
72380;SHT30;60354;47.798;12.472;2023-04-03T02:47:21;3.01;90.85
72380;SHT30;60354;47.798;12.472;2023-04-03T02:49:47;2.91;89.57
72380;SHT30;60354;47.798;12.472;2023-04-03T02:52:13;3.01;90.37
72380;SHT30;60354;47.798;12.472;2023-04-03T02:54:39;2.92;89.85
72380;SHT30;60354;47.798;12.472;2023-04-03T02:57:07;2.95;90.33
72380;SHT30;60354;47.798;12.472;2023-04-03T02:59:37;2.84;89.79
72380;SHT30;60354;47.798;12.472;2023-04-03T03:02:10;2.89;90.89
72380;SHT30;60354;47.798;12.472;2023-04-03T03:04:36;2.85;90.58
72380;SHT30;60354;47.798;12.472;2023-04-03T03:07:02;2.89;90.95
72380;SHT30;60354;47.798;12.472;2023-04-03T03:09:28;2.95;91.05
72380;SHT30;60354;47.798;12.472;2023-04-03T03:11:55;2.94;90.36
72380;SHT30;60354;47.798;12.472;2023-04-03T03:14:21;2.91;90.34
72380;SHT30;60354;47.798;12.472;2023-04-03T03:16:47;2.92;90.13
72380;SHT30;60354;47.798;12.472;2023-04-03T03:19:12;2.99;90.38
72380;SHT30;60354;47.798;12.472;2023-04-03T03:21:38;2.97;90.20
72380;SHT30;60354;47.798;12.472;2023-04-03T03:24:04;2.94;89.90
72380;SHT30;60354;47.798;12.472;2023-04-03T03:26:29;2.94;90.03
72380;SHT30;60354;47.798;12.472;2023-04-03T03:28:55;2.95;90.33
72380;SHT30;60354;47.798;12.472;2023-04-03T03:31:21;2.94;89.38
72380;SHT30;60354;47.798;12.472;2023-04-03T03:33:46;2.91;89.78
72380;SHT30;60354;47.798;12.472;2023-04-03T03:36:12;2.95;89.41
72380;SHT30;60354;47.798;12.472;2023-04-03T03:38:38;2.92;90.13
72380;SHT30;60354;47.798;12.472;2023-04-03T03:41:04;2.88;90.03
72380;SHT30;60354;47.798;12.472;2023-04-03T03:43:32;2.99;89.79
72380;SHT30;60354;47.798;12.472;2023-04-03T03:45:57;3.05;89.50
72380;SHT30;60354;47.798;12.472;2023-04-03T03:48:24;3.09;89.45
72380;SHT30;60354;47.798;12.472;2023-04-03T03:50:50;2.97;88.73
72380;SHT30;60354;47.798;12.472;2023-04-03T03:53:18;2.97;88.50
72380;SHT30;60354;47.798;12.472;2023-04-03T03:55:44;2.99;89.88
72380;SHT30;60354;47.798;12.472;2023-04-03T03:58:10;3.02;88.56
72380;SHT30;60354;47.798;12.472;2023-04-03T04:00:36;2.97;89.41
72380;SHT30;60354;47.798;12.472;2023-04-03T04:03:02;2.94;89.41
72380;SHT30;60354;47.798;12.472;2023-04-03T04:05:30;2.89;89.23
72380;SHT30;60354;47.798;12.472;2023-04-03T04:07:57;2.98;89.84
72380;SHT30;60354;47.798;12.472;2023-04-03T04:10:24;2.95;89.40
72380;SHT30;60354;47.798;12.472;2023-04-03T04:12:49;2.89;89.05
72380;SHT30;60354;47.798;12.472;2023-04-03T04:15:18;2.94;89.79
72380;SHT30;60354;47.798;12.472;2023-04-03T04:17:44;3.01;89.61
72380;SHT30;60354;47.798;12.472;2023-04-03T04:20:11;3.02;88.96
72380;SHT30;60354;47.798;12.472;2023-04-03T04:22:38;2.95;89.36
72380;SHT30;60354;47.798;12.472;2023-04-03T04:25:04;3.04;89.63
72380;SHT30;60354;47.798;12.472;2023-04-03T04:27:30;3.09;89.94
72380;SHT30;60354;47.798;12.472;2023-04-03T04:29:56;3.13;90.25
72380;SHT30;60354;47.798;12.472;2023-04-03T04:32:21;3.16;89.60
72380;SHT30;60354;47.798;12.472;2023-04-03T04:34:48;3.18;89.68
72380;SHT30;60354;47.798;12.472;2023-04-03T04:37:13;3.12;89.06
72380;SHT30;60354;47.798;12.472;2023-04-03T04:39:39;3.11;89.30
72380;SHT30;60354;47.798;12.472;2023-04-03T04:42:05;3.12;89.10
72380;SHT30;60354;47.798;12.472;2023-04-03T04:44:32;3.05;88.96
72380;SHT30;60354;47.798;12.472;2023-04-03T04:46:58;3.02;89.37
72380;SHT30;60354;47.798;12.472;2023-04-03T04:49:24;2.94;88.75
72380;SHT30;60354;47.798;12.472;2023-04-03T04:51:50;2.98;89.62
72380;SHT30;60354;47.798;12.472;2023-04-03T04:54:17;3.02;89.31
72380;SHT30;60354;47.798;12.472;2023-04-03T04:56:45;3.04;89.27
72380;SHT30;60354;47.798;12.472;2023-04-03T04:59:10;3.01;89.32
72380;SHT30;60354;47.798;12.472;2023-04-03T05:01:36;3.08;89.77
72380;SHT30;60354;47.798;12.472;2023-04-03T05:04:07;3.04;88.98
72380;SHT30;60354;47.798;12.472;2023-04-03T05:06:33;2.81;88.78
72380;SHT30;60354;47.798;12.472;2023-04-03T05:09:01;2.91;89.90
72380;SHT30;60354;47.798;12.472;2023-04-03T05:11:28;2.94;89.65
72380;SHT30;60354;47.798;12.472;2023-04-03T05:13:54;3.02;89.68
72380;SHT30;60354;47.798;12.472;2023-04-03T05:16:22;3.12;89.69
72380;SHT30;60354;47.798;12.472;2023-04-03T05:18:47;3.16;89.40
72380;SHT30;60354;47.798;12.472;2023-04-03T05:21:17;3.16;88.67
72380;SHT30;60354;47.798;12.472;2023-04-03T05:23:45;3.11;88.95
72380;SHT30;60354;47.798;12.472;2023-04-03T05:26:10;3.13;89.01
72380;SHT30;60354;47.798;12.472;2023-04-03T05:28:36;3.16;88.61
72380;SHT30;60354;47.798;12.472;2023-04-03T05:31:02;3.16;87.82
72380;SHT30;60354;47.798;12.472;2023-04-03T05:33:33;3.09;87.65
72380;SHT30;60354;47.798;12.472;2023-04-03T05:36:04;3.04;88.26
72380;SHT30;60354;47.798;12.472;2023-04-03T05:38:32;2.97;88.75
72380;SHT30;60354;47.798;12.472;2023-04-03T05:40:58;2.98;87.57
72380;SHT30;60354;47.798;12.472;2023-04-03T05:43:24;2.98;88.39
72380;SHT30;60354;47.798;12.472;2023-04-03T05:45:51;3.08;89.05
72380;SHT30;60354;47.798;12.472;2023-04-03T05:48:18;3.07;87.57
72380;SHT30;60354;47.798;12.472;2023-04-03T05:50:44;3.11;87.32
72380;SHT30;60354;47.798;12.472;2023-04-03T05:53:18;3.12;87.25
72380;SHT30;60354;47.798;12.472;2023-04-03T05:55:46;3.09;87.34
72380;SHT30;60354;47.798;12.472;2023-04-03T05:58:12;3.22;87.83
72380;SHT30;60354;47.798;12.472;2023-04-03T06:00:38;3.15;87.35
72380;SHT30;60354;47.798;12.472;2023-04-03T06:03:04;3.19;87.49
72380;SHT30;60354;47.798;12.472;2023-04-03T06:05:30;3.09;87.54
72380;SHT30;60354;47.798;12.472;2023-04-03T06:07:55;3.07;86.89
72380;SHT30;60354;47.798;12.472;2023-04-03T06:10:22;3.07;87.78
72380;SHT30;60354;47.798;12.472;2023-04-03T06:12:49;2.99;86.05
72380;SHT30;60354;47.798;12.472;2023-04-03T06:15:15;3.02;86.53
72380;SHT30;60354;47.798;12.472;2023-04-03T06:17:42;2.97;86.98
72380;SHT30;60354;47.798;12.472;2023-04-03T06:20:08;2.97;87.57
72380;SHT30;60354;47.798;12.472;2023-04-03T06:22:35;3.07;88.71
72380;SHT30;60354;47.798;12.472;2023-04-03T06:25:01;3.09;87.58
72380;SHT30;60354;47.798;12.472;2023-04-03T06:27:27;3.04;87.68
72380;SHT30;60354;47.798;12.472;2023-04-03T06:29:52;2.97;86.68
72380;SHT30;60354;47.798;12.472;2023-04-03T06:32:18;2.92;88.02
72380;SHT30;60354;47.798;12.472;2023-04-03T06:34:43;2.88;87.69
72380;SHT30;60354;47.798;12.472;2023-04-03T06:37:16;3.02;88.33
72380;SHT30;60354;47.798;12.472;2023-04-03T06:39:42;3.02;87.90
72380;SHT30;60354;47.798;12.472;2023-04-03T06:42:08;3.07;88.08
72380;SHT30;60354;47.798;12.472;2023-04-03T06:44:37;3.04;87.66
72380;SHT30;60354;47.798;12.472;2023-04-03T06:47:03;3.19;88.64
72380;SHT30;60354;47.798;12.472;2023-04-03T06:49:29;3.28;87.63
72380;SHT30;60354;47.798;12.472;2023-04-03T06:51:54;3.30;86.61
72380;SHT30;60354;47.798;12.472;2023-04-03T06:54:21;3.40;87.35
72380;SHT30;60354;47.798;12.472;2023-04-03T06:56:47;3.46;86.65
72380;SHT30;60354;47.798;12.472;2023-04-03T06:59:12;3.40;86.59
72380;SHT30;60354;47.798;12.472;2023-04-03T07:01:40;3.22;86.42
72380;SHT30;60354;47.798;12.472;2023-04-03T07:04:07;3.22;85.72
72380;SHT30;60354;47.798;12.472;2023-04-03T07:06:34;3.36;86.00
72380;SHT30;60354;47.798;12.472;2023-04-03T07:09:00;3.38;85.39
72380;SHT30;60354;47.798;12.472;2023-04-03T07:11:26;3.30;86.16
72380;SHT30;60354;47.798;12.472;2023-04-03T07:13:52;3.25;86.21
72380;SHT30;60354;47.798;12.472;2023-04-03T07:16:19;3.20;86.63
72380;SHT30;60354;47.798;12.472;2023-04-03T07:18:45;3.29;86.74
72380;SHT30;60354;47.798;12.472;2023-04-03T07:21:11;3.38;85.72
72380;SHT30;60354;47.798;12.472;2023-04-03T07:23:37;3.39;86.23
72380;SHT30;60354;47.798;12.472;2023-04-03T07:26:02;3.43;86.19
72380;SHT30;60354;47.798;12.472;2023-04-03T07:28:28;3.40;84.57
72380;SHT30;60354;47.798;12.472;2023-04-03T07:31:00;3.42;85.18
72380;SHT30;60354;47.798;12.472;2023-04-03T07:33:26;3.42;85.52
72380;SHT30;60354;47.798;12.472;2023-04-03T07:35:52;3.36;85.09
72380;SHT30;60354;47.798;12.472;2023-04-03T07:38:18;3.53;85.59
72380;SHT30;60354;47.798;12.472;2023-04-03T07:40:48;3.62;85.39
72380;SHT30;60354;47.798;12.472;2023-04-03T07:43:14;3.76;84.02
72380;SHT30;60354;47.798;12.472;2023-04-03T07:45:41;3.69;84.39
72380;SHT30;60354;47.798;12.472;2023-04-03T07:48:09;3.70;84.30
72380;SHT30;60354;47.798;12.472;2023-04-03T07:50:35;3.59;83.81
72380;SHT30;60354;47.798;12.472;2023-04-03T07:53:02;3.55;83.48
72380;SHT30;60354;47.798;12.472;2023-04-03T07:55:28;3.64;84.28
72380;SHT30;60354;47.798;12.472;2023-04-03T07:57:53;3.74;83.85
72380;SHT30;60354;47.798;12.472;2023-04-03T08:00:19;3.71;84.10
72380;SHT30;60354;47.798;12.472;2023-04-03T08:02:45;3.76;84.81
72380;SHT30;60354;47.798;12.472;2023-04-03T08:05:18;3.88;84.25
72380;SHT30;60354;47.798;12.472;2023-04-03T08:07:44;3.90;83.51
72380;SHT30;60354;47.798;12.472;2023-04-03T08:10:09;3.87;83.43
72380;SHT30;60354;47.798;12.472;2023-04-03T08:12:35;3.84;82.47
72380;SHT30;60354;47.798;12.472;2023-04-03T08:15:03;4.05;83.41
72380;SHT30;60354;47.798;12.472;2023-04-03T08:17:29;3.84;83.06
72380;SHT30;60354;47.798;12.472;2023-04-03T08:19:54;3.90;83.94
72380;SHT30;60354;47.798;12.472;2023-04-03T08:22:20;4.01;82.81
72380;SHT30;60354;47.798;12.472;2023-04-03T08:24:46;3.98;83.35
72380;SHT30;60354;47.798;12.472;2023-04-03T08:27:12;4.12;84.06
72380;SHT30;60354;47.798;12.472;2023-04-03T08:29:37;4.24;81.06
72380;SHT30;60354;47.798;12.472;2023-04-03T08:32:04;4.15;81.39
72380;SHT30;60354;47.798;12.472;2023-04-03T08:34:30;4.32;81.77
72380;SHT30;60354;47.798;12.472;2023-04-03T08:36:56;4.38;81.20
72380;SHT30;60354;47.798;12.472;2023-04-03T08:39:21;4.29;81.86
72380;SHT30;60354;47.798;12.472;2023-04-03T08:41:47;4.31;78.99
72380;SHT30;60354;47.798;12.472;2023-04-03T08:44:26;4.05;77.53
72380;SHT30;60354;47.798;12.472;2023-04-03T08:50:19;4.19;79.68
72380;SHT30;60354;47.798;12.472;2023-04-03T08:52:56;4.17;80.70
72380;SHT30;60354;47.798;12.472;2023-04-03T08:55:28;4.34;77.88
72380;SHT30;60354;47.798;12.472;2023-04-03T08:58:05;4.35;78.96
72380;SHT30;60354;47.798;12.472;2023-04-03T09:00:44;4.58;79.50
72380;SHT30;60354;47.798;12.472;2023-04-03T09:03:13;4.45;78.19
72380;SHT30;60354;47.798;12.472;2023-04-03T09:05:55;4.84;79.10
72380;SHT30;60354;47.798;12.472;2023-04-03T09:16:25;5.20;74.96
72380;SHT30;60354;47.798;12.472;2023-04-03T09:19:00;5.50;73.43
72380;SHT30;60354;47.798;12.472;2023-04-03T09:21:45;5.65;72.83
72380;SHT30;60354;47.798;12.472;2023-04-03T09:24:13;5.51;72.90
72380;SHT30;60354;47.798;12.472;2023-04-03T09:26:45;5.79;70.24
72380;SHT30;60354;47.798;12.472;2023-04-03T09:29:17;5.56;69.55
72380;SHT30;60354;47.798;12.472;2023-04-03T09:31:45;5.47;67.75
72380;SHT30;60354;47.798;12.472;2023-04-03T09:34:20;5.27;68.55
72380;SHT30;60354;47.798;12.472;2023-04-03T09:36:48;5.26;68.67
72380;SHT30;60354;47.798;12.472;2023-04-03T09:39:16;5.54;69.73
72380;SHT30;60354;47.798;12.472;2023-04-03T09:41:56;5.76;70.50
72380;SHT30;60354;47.798;12.472;2023-04-03T09:44:25;5.72;70.08
72380;SHT30;60354;47.798;12.472;2023-04-03T09:46:51;5.65;69.22
72380;SHT30;60354;47.798;12.472;2023-04-03T09:49:18;5.55;67.75
72380;SHT30;60354;47.798;12.472;2023-04-03T09:51:44;5.62;68.22
72380;SHT30;60354;47.798;12.472;2023-04-03T09:54:33;5.72;66.56
72380;SHT30;60354;47.798;12.472;2023-04-03T09:57:06;6.23;66.50
72380;SHT30;60354;47.798;12.472;2023-04-03T09:59:32;6.02;65.83
72380;SHT30;60354;47.798;12.472;2023-04-03T10:02:22;5.92;66.67
72380;SHT30;60354;47.798;12.472;2023-04-03T10:04:49;6.09;66.25
72380;SHT30;60354;47.798;12.472;2023-04-03T10:09:57;6.13;63.73
72380;SHT30;60354;47.798;12.472;2023-04-03T10:12:23;6.43;64.36
72380;SHT30;60354;47.798;12.472;2023-04-03T10:14:59;6.23;63.44
72380;SHT30;60354;47.798;12.472;2023-04-03T10:20:25;6.05;63.25
72380;SHT30;60354;47.798;12.472;2023-04-03T10:36:38;5.55;66.80
72380;SHT30;60354;47.798;12.472;2023-04-03T10:42:03;5.21;65.42
72380;SHT30;60354;47.798;12.472;2023-04-03T10:53:11;5.10;65.06
72380;SHT30;60354;47.798;12.472;2023-04-03T10:58:21;5.35;67.10
72380;SHT30;60354;47.798;12.472;2023-04-03T11:00:51;5.42;65.34
72380;SHT30;60354;47.798;12.472;2023-04-03T11:03:32;5.42;66.26
72380;SHT30;60354;47.798;12.472;2023-04-03T11:06:02;5.40;66.10
72380;SHT30;60354;47.798;12.472;2023-04-03T11:08:39;5.35;67.12
72380;SHT30;60354;47.798;12.472;2023-04-03T11:11:24;5.42;68.71
72380;SHT30;60354;47.798;12.472;2023-04-03T11:16:30;5.50;68.11
72380;SHT30;60354;47.798;12.472;2023-04-03T11:19:08;5.48;68.80
72380;SHT30;60354;47.798;12.472;2023-04-03T11:21:41;5.63;68.80
72380;SHT30;60354;47.798;12.472;2023-04-03T11:24:19;5.54;69.90
72380;SHT30;60354;47.798;12.472;2023-04-03T11:26:46;5.52;68.56
72380;SHT30;60354;47.798;12.472;2023-04-03T11:29:19;5.20;69.02
72380;SHT30;60354;47.798;12.472;2023-04-03T11:32:11;4.96;70.18
72380;SHT30;60354;47.798;12.472;2023-04-03T11:34:44;4.80;73.17
72380;SHT30;60354;47.798;12.472;2023-04-03T11:42:42;3.90;81.86
72380;SHT30;60354;47.798;12.472;2023-04-03T11:50:47;3.19;84.92
72380;SHT30;60354;47.798;12.472;2023-04-03T12:05:54;2.94;86.71
72380;SHT30;60354;47.798;12.472;2023-04-03T12:08:42;3.09;86.49
72380;SHT30;60354;47.798;12.472;2023-04-03T12:16:05;3.25;84.10
72380;SHT30;60354;47.798;12.472;2023-04-03T12:42:44;4.69;80.63
72380;SHT30;60354;47.798;12.472;2023-04-03T12:45:20;4.87;80.37
72380;SHT30;60354;47.798;12.472;2023-04-03T12:47:49;4.79;79.45
72380;SHT30;60354;47.798;12.472;2023-04-03T12:50:28;4.69;79.92
72380;SHT30;60354;47.798;12.472;2023-04-03T12:55:27;4.65;78.65
72380;SHT30;60354;47.798;12.472;2023-04-03T12:57:52;4.46;79.79
72380;SHT30;60354;47.798;12.472;2023-04-03T13:00:27;4.24;78.87
72380;SHT30;60354;47.798;12.472;2023-04-03T13:02:53;4.24;80.62
72380;SHT30;60354;47.798;12.472;2023-04-03T13:05:19;4.11;80.56
72380;SHT30;60354;47.798;12.472;2023-04-03T13:07:54;3.83;81.63
72380;SHT30;60354;47.798;12.472;2023-04-03T13:10:22;3.86;82.23
72380;SHT30;60354;47.798;12.472;2023-04-03T13:12:54;3.88;82.20
72380;SHT30;60354;47.798;12.472;2023-04-03T13:15:21;3.83;82.80
72380;SHT30;60354;47.798;12.472;2023-04-03T13:17:48;3.71;82.57
72380;SHT30;60354;47.798;12.472;2023-04-03T13:20:29;3.57;83.79
72380;SHT30;60354;47.798;12.472;2023-04-03T13:23:05;3.64;84.65
72380;SHT30;60354;47.798;12.472;2023-04-03T13:25:35;3.67;83.93
72380;SHT30;60354;47.798;12.472;2023-04-03T13:28:04;3.81;84.43
72380;SHT30;60354;47.798;12.472;2023-04-03T13:30:36;3.88;83.40
72380;SHT30;60354;47.798;12.472;2023-04-03T13:33:05;3.86;83.15
72380;SHT30;60354;47.798;12.472;2023-04-03T13:35:41;3.80;81.99
72380;SHT30;60354;47.798;12.472;2023-04-03T13:38:28;3.63;83.14
72380;SHT30;60354;47.798;12.472;2023-04-03T13:40:59;3.47;83.56
72380;SHT30;60354;47.798;12.472;2023-04-03T13:43:31;3.25;85.00
72380;SHT30;60354;47.798;12.472;2023-04-03T13:51:05;3.20;86.61
72380;SHT30;60354;47.798;12.472;2023-04-03T13:53:34;3.23;85.68
72380;SHT30;60354;47.798;12.472;2023-04-03T13:56:13;3.44;85.15
72380;SHT30;60354;47.798;12.472;2023-04-03T13:59:03;3.38;85.70
72380;SHT30;60354;47.798;12.472;2023-04-03T14:01:42;3.59;85.08
72380;SHT30;60354;47.798;12.472;2023-04-03T14:06:39;3.79;84.15
72380;SHT30;60354;47.798;12.472;2023-04-03T14:09:04;3.87;83.98
72380;SHT30;60354;47.798;12.472;2023-04-03T14:11:30;3.87;83.72
72380;SHT30;60354;47.798;12.472;2023-04-03T14:14:02;3.90;83.68
72380;SHT30;60354;47.798;12.472;2023-04-03T14:16:32;4.04;83.52
72380;SHT30;60354;47.798;12.472;2023-04-03T14:18:58;4.11;83.70
72380;SHT30;60354;47.798;12.472;2023-04-03T14:21:23;4.22;83.86
72380;SHT30;60354;47.798;12.472;2023-04-03T14:23:49;4.21;83.39
72380;SHT30;60354;47.798;12.472;2023-04-03T14:26:20;4.28;83.21
72380;SHT30;60354;47.798;12.472;2023-04-03T14:28:49;4.24;83.10
72380;SHT30;60354;47.798;12.472;2023-04-03T14:31:16;4.31;84.50
72380;SHT30;60354;47.798;12.472;2023-04-03T14:33:43;4.38;83.14
72380;SHT30;60354;47.798;12.472;2023-04-03T14:36:16;4.45;82.43
72380;SHT30;60354;47.798;12.472;2023-04-03T14:38:44;4.17;83.82
72380;SHT30;60354;47.798;12.472;2023-04-03T14:41:15;4.34;84.27
72380;SHT30;60354;47.798;12.472;2023-04-03T14:43:42;4.49;83.14
72380;SHT30;60354;47.798;12.472;2023-04-03T14:46:21;4.49;82.05
72380;SHT30;60354;47.798;12.472;2023-04-03T14:48:47;4.59;82.31
72380;SHT30;60354;47.798;12.472;2023-04-03T14:51:13;4.59;80.05
72380;SHT30;60354;47.798;12.472;2023-04-03T14:53:39;4.66;79.65
72380;SHT30;60354;47.798;12.472;2023-04-03T14:56:17;4.62;80.77
72380;SHT30;60354;47.798;12.472;2023-04-03T14:58:43;4.73;80.42
72380;SHT30;60354;47.798;12.472;2023-04-03T15:01:10;4.77;79.75
72380;SHT30;60354;47.798;12.472;2023-04-03T15:03:37;4.75;78.01
72380;SHT30;60354;47.798;12.472;2023-04-03T15:06:03;4.75;78.59
72380;SHT30;60354;47.798;12.472;2023-04-03T15:08:28;4.72;80.11
72380;SHT30;60354;47.798;12.472;2023-04-03T15:10:55;4.56;79.76
72380;SHT30;60354;47.798;12.472;2023-04-03T15:13:22;4.46;80.74
72380;SHT30;60354;47.798;12.472;2023-04-03T15:15:48;4.32;80.97
72380;SHT30;60354;47.798;12.472;2023-04-03T15:18:25;4.17;82.79
72380;SHT30;60354;47.798;12.472;2023-04-03T15:20:52;3.98;80.39
72380;SHT30;60354;47.798;12.472;2023-04-03T15:23:18;3.97;79.22
72380;SHT30;60354;47.798;12.472;2023-04-03T15:25:48;4.07;79.52
72380;SHT30;60354;47.798;12.472;2023-04-03T15:28:25;4.11;79.51
72380;SHT30;60354;47.798;12.472;2023-04-03T15:30:52;4.07;79.56
72380;SHT30;60354;47.798;12.472;2023-04-03T15:33:18;4.02;80.50
72380;SHT30;60354;47.798;12.472;2023-04-03T15:35:44;3.91;79.01
72380;SHT30;60354;47.798;12.472;2023-04-03T15:38:09;3.83;79.10
72380;SHT30;60354;47.798;12.472;2023-04-03T15:40:35;3.69;78.48
72380;SHT30;60354;47.798;12.472;2023-04-03T15:43:01;3.73;80.44
72380;SHT30;60354;47.798;12.472;2023-04-03T15:45:29;3.71;78.52
72380;SHT30;60354;47.798;12.472;2023-04-03T15:47:55;3.84;80.93
72380;SHT30;60354;47.798;12.472;2023-04-03T15:50:21;3.94;80.01
72380;SHT30;60354;47.798;12.472;2023-04-03T15:52:48;3.88;79.87
72380;SHT30;60354;47.798;12.472;2023-04-03T15:55:22;3.86;81.84
72380;SHT30;60354;47.798;12.472;2023-04-03T15:57:48;3.86;81.64
72380;SHT30;60354;47.798;12.472;2023-04-03T16:00:13;3.71;83.02
72380;SHT30;60354;47.798;12.472;2023-04-03T16:02:39;3.66;83.20
72380;SHT30;60354;47.798;12.472;2023-04-03T16:05:06;3.60;83.36
72380;SHT30;60354;47.798;12.472;2023-04-03T16:07:31;3.50;83.85
72380;SHT30;60354;47.798;12.472;2023-04-03T16:09:57;3.50;83.67
72380;SHT30;60354;47.798;12.472;2023-04-03T16:12:22;3.50;84.27
72380;SHT30;60354;47.798;12.472;2023-04-03T16:14:48;3.62;83.81
72380;SHT30;60354;47.798;12.472;2023-04-03T16:17:13;3.73;83.87
72380;SHT30;60354;47.798;12.472;2023-04-03T16:19:39;3.74;84.02
72380;SHT30;60354;47.798;12.472;2023-04-03T16:22:04;3.77;83.96
72380;SHT30;60354;47.798;12.472;2023-04-03T16:24:30;3.84;83.07
72380;SHT30;60354;47.798;12.472;2023-04-03T16:26:57;3.81;82.42
72380;SHT30;60354;47.798;12.472;2023-04-03T16:29:23;3.76;82.72
72380;SHT30;60354;47.798;12.472;2023-04-03T16:31:49;3.69;84.52
72380;SHT30;60354;47.798;12.472;2023-04-03T16:34:15;3.73;84.22
72380;SHT30;60354;47.798;12.472;2023-04-03T16:36:41;3.64;83.24
72380;SHT30;60354;47.798;12.472;2023-04-03T16:39:06;3.69;83.75
72380;SHT30;60354;47.798;12.472;2023-04-03T16:41:34;3.56;83.44
72380;SHT30;60354;47.798;12.472;2023-04-03T16:44:00;3.63;82.67
72380;SHT30;60354;47.798;12.472;2023-04-03T16:46:25;3.73;83.04
72380;SHT30;60354;47.798;12.472;2023-04-03T16:48:51;3.86;82.18
72380;SHT30;60354;47.798;12.472;2023-04-03T16:51:16;3.86;81.90
72380;SHT30;60354;47.798;12.472;2023-04-03T16:53:42;3.74;81.61
72380;SHT30;60354;47.798;12.472;2023-04-03T16:56:08;3.79;81.35
72380;SHT30;60354;47.798;12.472;2023-04-03T16:58:33;3.93;81.72
72380;SHT30;60354;47.798;12.472;2023-04-03T17:01:10;3.88;82.24
72380;SHT30;60354;47.798;12.472;2023-04-03T17:03:35;3.91;80.52
72380;SHT30;60354;47.798;12.472;2023-04-03T17:06:01;3.95;80.25
72380;SHT30;60354;47.798;12.472;2023-04-03T17:08:26;3.93;81.02
72380;SHT30;60354;47.798;12.472;2023-04-03T17:10:52;3.97;80.70
72380;SHT30;60354;47.798;12.472;2023-04-03T17:13:18;3.94;80.67
72380;SHT30;60354;47.798;12.472;2023-04-03T17:15:44;3.98;80.56
72380;SHT30;60354;47.798;12.472;2023-04-03T17:18:10;3.98;79.38
72380;SHT30;60354;47.798;12.472;2023-04-03T17:20:36;3.91;80.44
72380;SHT30;60354;47.798;12.472;2023-04-03T17:23:03;3.94;81.91
72380;SHT30;60354;47.798;12.472;2023-04-03T17:25:29;3.80;84.10
72380;SHT30;60354;47.798;12.472;2023-04-03T17:27:55;3.64;85.03
72380;SHT30;60354;47.798;12.472;2023-04-03T17:30:21;3.62;85.62
72380;SHT30;60354;47.798;12.472;2023-04-03T17:32:47;3.60;84.23